Time,TemperatureF,DewpointF,PressureIn,WindDirection,WindDirectionDegrees,WindSpeedMPH,WindSpeedGustMPH,Humidity,HourlyPrecipIn,Conditions,Clouds,dailyrainin,SoftwareType,DateUTC
2013-06-13 00:01:00,55.6,50.8,29.81,SW,223,2.0,6.0,84,0.00,,---,0.00,VWS V13.00,2013-06-13 06:01:00,
2013-06-13 00:06:00,55.4,50.7,29.81,SW,221,2.0,6.0,84,0.00,,---,0.00,VWS V13.00,2013-06-13 06:06:00,
2013-06-13 00:11:00,55.3,50.6,29.79,SSW,213,1.0,5.0,84,0.00,,---,0.00,VWS V13.00,2013-06-13 06:11:00,
2013-06-13 00:16:00,55.2,50.5,29.79,SSW,213,0.0,5.0,84,0.00,,---,0.00,VWS V13.00,2013-06-13 06:16:00,
2013-06-13 00:21:00,54.8,50.4,29.79,ESE,113,4.0,7.0,85,0.00,,---,0.00,VWS V13.00,2013-06-13 06:21:00,
2013-06-13 00:26:00,54.5,50.4,29.76,ESE,117,2.0,7.0,86,0.00,,---,0.00,VWS V13.00,2013-06-13 06:26:00,
2013-06-13 00:31:00,54.4,50.3,29.76,SSE,154,6.0,7.0,86,0.00,,---,0.00,VWS V13.00,2013-06-13 06:31:00,
2013-06-13 00:36:00,54.2,50.4,29.76,SSE,153,4.0,7.0,87,0.00,,---,0.00,VWS V13.00,2013-06-13 06:36:00,
2013-06-13 00:41:00,53.9,50.1,29.77,SSE,154,5.0,6.0,87,0.00,,---,0.00,VWS V13.00,2013-06-13 06:41:00,
2013-06-13 00:46:00,53.7,49.9,29.77,SSE,153,3.0,6.0,87,0.00,,---,0.00,VWS V13.00,2013-06-13 06:46:00,
2013-06-13 00:51:00,53.4,49.9,29.77,SSE,153,5.0,6.0,88,0.00,,---,0.00,VWS V13.00,2013-06-13 06:51:00,
2013-06-13 00:56:00,53.3,49.8,29.78,SSE,153,0.0,6.0,88,0.00,,---,0.00,VWS V13.00,2013-06-13 06:56:00,
2013-06-13 01:01:00,53.4,49.9,29.78,SSE,153,3.0,6.0,88,0.00,,---,0.00,VWS V13.00,2013-06-13 07:01:00,
2013-06-13 01:06:00,53.5,50.0,29.78,SSE,153,0.0,6.0,88,0.00,,---,0.00,VWS V13.00,2013-06-13 07:06:00,
2013-06-13 01:11:00,53.5,50.0,29.77,SSE,153,0.0,0.0,88,0.00,,---,0.00,VWS V13.00,2013-06-13 07:11:00,
2013-06-13 01:16:00,53.5,50.0,29.77,SSE,154,0.0,0.0,88,0.00,,---,0.00,VWS V13.00,2013-06-13 07:16:00,
2013-06-13 01:21:00,53.5,50.0,29.77,SE,146,4.0,4.0,88,0.00,,---,0.00,VWS V13.00,2013-06-13 07:21:00,
2013-06-13 01:26:00,53.5,50.0,29.75,SE,143,0.0,4.0,88,0.00,,---,0.00,VWS V13.00,2013-06-13 07:26:00,
2013-06-13 01:31:00,53.2,50.0,29.75,SE,143,2.0,4.0,89,0.00,,---,0.00,VWS V13.00,2013-06-13 07:31:00,
2013-06-13 01:36:00,53.0,49.8,29.75,SE,143,3.0,5.0,89,0.00,,---,0.00,VWS V13.00,2013-06-13 07:36:00,
2013-06-13 01:41:00,52.9,50.3,29.72,SE,142,3.0,4.0,91,0.00,,---,0.00,VWS V13.00,2013-06-13 07:41:00,
2013-06-13 01:46:00,52.8,50.2,29.72,SE,142,0.0,4.0,91,0.00,,---,0.00,VWS V13.00,2013-06-13 07:46:00,
2013-06-13 01:51:00,52.9,50.3,29.72,SE,142,0.0,4.0,91,0.00,,---,0.00,VWS V13.00,2013-06-13 07:51:00,
2013-06-13 01:56:00,52.9,50.6,29.73,SE,142,0.0,4.0,92,0.00,,---,0.00,VWS V13.00,2013-06-13 07:56:00,
2013-06-13 02:01:00,52.9,50.3,29.73,SE,142,0.0,4.0,91,0.00,,---,0.00,VWS V13.00,2013-06-13 08:01:00,
2013-06-13 02:06:00,52.8,50.2,29.73,SE,142,0.0,4.0,91,0.00,,---,0.00,VWS V13.00,2013-06-13 08:06:00,
2013-06-13 02:11:00,52.8,50.2,29.73,SE,142,0.0,0.0,91,0.00,,---,0.00,VWS V13.00,2013-06-13 08:11:00,
2013-06-13 02:16:00,52.8,50.5,29.73,SE,142,0.0,0.0,92,0.00,,---,0.00,VWS V13.00,2013-06-13 08:16:00,
2013-06-13 02:21:00,52.7,50.5,29.73,SE,142,0.0,0.0,92,0.00,,---,0.00,VWS V13.00,2013-06-13 08:21:00,
2013-06-13 02:26:00,52.8,50.5,29.71,SE,142,0.0,0.0,92,0.00,,---,0.00,VWS V13.00,2013-06-13 08:26:00,
2013-06-13 02:31:00,52.7,50.5,29.71,SE,142,0.0,0.0,92,0.00,,---,0.00,VWS V13.00,2013-06-13 08:31:00,
2013-06-13 02:36:00,52.7,50.5,29.71,SE,142,0.0,0.0,92,0.00,,---,0.00,VWS V13.00,2013-06-13 08:36:00,
2013-06-13 02:41:00,52.6,50.3,29.72,SSW,195,5.0,5.0,92,0.00,,---,0.00,VWS V13.00,2013-06-13 08:41:00,
2013-06-13 02:46:00,52.3,49.8,29.72,SW,232,7.0,8.0,91,0.00,,---,0.00,VWS V13.00,2013-06-13 08:46:00,
2013-06-13 02:51:00,51.9,49.4,29.72,WSW,240,9.0,11.0,91,0.00,,---,0.00,VWS V13.00,2013-06-13 08:51:00,
2013-06-13 02:56:00,51.5,49.0,29.72,SW,229,5.0,11.0,91,0.00,,---,0.00,VWS V13.00,2013-06-13 08:56:00,
2013-06-13 03:01:00,51.3,48.8,29.72,SW,228,5.0,11.0,91,0.00,,---,0.00,VWS V13.00,2013-06-13 09:01:00,
2013-06-13 03:06:00,51.1,48.6,29.72,WSW,241,6.0,11.0,91,0.00,,---,0.00,VWS V13.00,2013-06-13 09:06:00,
2013-06-13 03:11:00,50.9,48.4,29.72,WSW,241,5.0,8.0,91,0.00,,---,0.00,VWS V13.00,2013-06-13 09:11:00,
2013-06-13 03:16:00,50.8,48.3,29.72,WSW,238,7.0,9.0,91,0.00,,---,0.00,VWS V13.00,2013-06-13 09:16:00,
2013-06-13 03:21:00,50.7,48.5,29.72,SW,231,7.0,10.0,92,0.00,,---,0.00,VWS V13.00,2013-06-13 09:21:00,
2013-06-13 03:26:00,50.6,48.4,29.73,WSW,240,9.0,11.0,92,0.00,,---,0.00,VWS V13.00,2013-06-13 09:26:00,
2013-06-13 03:30:00,50.5,48.0,29.73,SW,231,7.0,11.0,91,0.00,,---,0.00,VWS V13.00,2013-06-13 09:30:00,
2013-06-13 03:35:00,50.4,47.9,29.73,SW,230,4.0,11.0,91,0.00,,---,0.00,VWS V13.00,2013-06-13 09:35:00,
2013-06-13 03:40:00,50.3,47.8,29.73,SW,231,10.0,10.0,91,0.00,,---,0.00,VWS V13.00,2013-06-13 09:40:00,
2013-06-13 03:45:00,50.4,47.9,29.73,SW,236,9.0,11.0,91,0.00,,---,0.00,VWS V13.00,2013-06-13 09:45:00,
2013-06-13 03:50:00,50.4,47.9,29.73,SW,233,7.0,11.0,91,0.00,,---,0.00,VWS V13.00,2013-06-13 09:50:00,
2013-06-13 03:55:00,50.5,48.0,29.71,SW,224,6.0,11.0,91,0.00,,---,0.00,VWS V13.00,2013-06-13 09:55:00,
2013-06-13 04:00:00,50.5,48.0,29.71,SW,225,6.0,11.0,91,0.00,,---,0.00,VWS V13.00,2013-06-13 10:00:00,
2013-06-13 04:05:00,50.6,48.1,29.71,SW,227,4.0,11.0,91,0.00,,---,0.00,VWS V13.00,2013-06-13 10:05:00,
2013-06-13 04:10:00,50.8,48.3,29.72,SW,225,4.0,8.0,91,0.00,,---,0.00,VWS V13.00,2013-06-13 10:10:00,
2013-06-13 04:15:00,51.0,48.2,29.72,SW,219,5.0,8.0,90,0.00,,---,0.00,VWS V13.00,2013-06-13 10:15:00,
2013-06-13 04:20:00,51.2,48.4,29.72,SW,218,4.0,8.0,90,0.00,,---,0.00,VWS V13.00,2013-06-13 10:20:00,
2013-06-13 04:25:00,51.2,48.1,29.71,SW,218,1.0,8.0,89,0.00,,---,0.00,VWS V13.00,2013-06-13 10:25:00,
2013-06-13 04:30:00,50.9,47.5,29.71,SW,218,3.0,8.0,88,0.00,,---,0.00,VWS V13.00,2013-06-13 10:30:00,
2013-06-13 04:35:00,50.6,47.5,29.71,SSW,199,0.0,8.0,89,0.00,,---,0.00,VWS V13.00,2013-06-13 10:35:00,
2013-06-13 04:40:00,50.3,47.2,29.71,SSW,200,0.0,0.0,89,0.00,,---,0.00,VWS V13.00,2013-06-13 10:40:00,
2013-06-13 04:45:00,50.2,47.4,29.71,SSW,199,0.0,0.0,90,0.00,,---,0.00,VWS V13.00,2013-06-13 10:45:00,
2013-06-13 04:50:00,50.2,47.4,29.71,SSW,200,0.0,0.0,90,0.00,,---,0.00,VWS V13.00,2013-06-13 10:50:00,
2013-06-13 04:55:00,50.2,47.4,29.72,SSW,199,0.0,0.0,90,0.00,,---,0.00,VWS V13.00,2013-06-13 10:55:00,
2013-06-13 05:00:00,50.1,47.3,29.72,SSW,200,0.0,0.0,90,0.00,,---,0.00,VWS V13.00,2013-06-13 11:00:00,
2013-06-13 05:05:00,50.0,47.2,29.72,SSW,199,0.0,0.0,90,0.00,,---,0.00,VWS V13.00,2013-06-13 11:05:00,
2013-06-13 05:10:00,49.8,47.3,29.72,SSW,200,0.0,0.0,91,0.00,,---,0.00,VWS V13.00,2013-06-13 11:10:00,
2013-06-13 05:15:00,49.6,47.1,29.72,SSW,199,0.0,0.0,91,0.00,,---,0.00,VWS V13.00,2013-06-13 11:15:00,
2013-06-13 05:20:00,49.4,46.9,29.72,SSW,200,0.0,0.0,91,0.00,,---,0.00,VWS V13.00,2013-06-13 11:20:00,
2013-06-13 05:25:00,49.0,46.5,29.72,South,190,5.0,6.0,91,0.00,,---,0.00,VWS V13.00,2013-06-13 11:25:00,
2013-06-13 05:30:00,48.6,46.4,29.72,SSE,156,8.0,9.0,92,0.00,,---,0.00,VWS V13.00,2013-06-13 11:30:00,
2013-06-13 05:35:00,48.4,46.5,29.72,SE,142,6.0,10.0,93,0.00,,---,0.00,VWS V13.00,2013-06-13 11:35:00,
2013-06-13 05:40:00,48.3,46.4,29.73,SE,143,4.0,6.0,93,0.00,,---,0.00,VWS V13.00,2013-06-13 11:40:00,
2013-06-13 05:45:00,48.1,46.2,29.73,SE,142,3.0,6.0,93,0.00,,---,0.00,VWS V13.00,2013-06-13 11:45:00,
2013-06-13 05:50:00,48.0,46.1,29.73,SE,143,4.0,6.0,93,0.00,,---,0.00,VWS V13.00,2013-06-13 11:50:00,
2013-06-13 05:55:00,48.1,46.5,29.73,SE,143,4.0,6.0,94,0.00,,---,0.00,VWS V13.00,2013-06-13 11:55:00,
2013-06-13 06:00:00,48.2,46.6,29.73,SE,142,2.0,6.0,94,0.00,,---,0.00,VWS V13.00,2013-06-13 12:00:00,
2013-06-13 06:05:00,48.3,46.7,29.73,SE,143,2.0,6.0,94,0.00,,---,0.00,VWS V13.00,2013-06-13 12:05:00,
2013-06-13 06:10:00,48.5,46.9,29.73,SE,142,3.0,4.0,94,0.00,,---,0.00,VWS V13.00,2013-06-13 12:10:00,
2013-06-13 06:15:00,48.5,46.9,29.73,SE,143,3.0,4.0,94,0.00,,---,0.00,VWS V13.00,2013-06-13 12:15:00,
2013-06-13 06:20:00,48.7,47.3,29.73,SE,142,3.0,4.0,95,0.00,,---,0.00,VWS V13.00,2013-06-13 12:20:00,
2013-06-13 06:25:00,48.8,47.4,29.74,SE,143,3.0,5.0,95,0.00,,---,0.00,VWS V13.00,2013-06-13 12:25:00,
2013-06-13 06:30:00,48.9,47.5,29.74,SE,145,4.0,5.0,95,0.00,,---,0.00,VWS V13.00,2013-06-13 12:30:00,
2013-06-13 06:35:00,49.1,47.5,29.74,South,171,4.0,6.0,94,0.00,,---,0.00,VWS V13.00,2013-06-13 12:35:00,
2013-06-13 06:40:00,49.0,47.3,29.74,South,171,3.0,4.0,94,0.00,,---,0.00,VWS V13.00,2013-06-13 12:40:00,
2013-06-13 06:45:00,49.0,47.3,29.74,South,171,2.0,5.0,94,0.00,,---,0.00,VWS V13.00,2013-06-13 12:45:00,
2013-06-13 06:50:00,49.1,47.5,29.74,South,171,2.0,5.0,94,0.00,,---,0.00,VWS V13.00,2013-06-13 12:50:00,
2013-06-13 06:55:00,49.2,47.5,29.75,South,171,4.0,5.0,94,0.00,,---,0.00,VWS V13.00,2013-06-13 12:55:00,
2013-06-13 07:00:00,49.3,47.7,29.75,South,171,0.0,5.0,94,0.00,,---,0.00,VWS V13.00,2013-06-13 13:00:00,
2013-06-13 07:05:00,49.4,47.8,29.75,South,171,0.0,5.0,94,0.00,,---,0.00,VWS V13.00,2013-06-13 13:05:00,
2013-06-13 07:10:00,49.6,48.0,29.76,South,171,0.0,0.0,94,0.00,,---,0.00,VWS V13.00,2013-06-13 13:10:00,
2013-06-13 07:15:00,49.7,48.0,29.76,South,171,0.0,0.0,94,0.00,,---,0.00,VWS V13.00,2013-06-13 13:15:00,
2013-06-13 07:20:00,49.9,48.5,29.76,South,173,0.0,0.0,95,0.00,,---,0.00,VWS V13.00,2013-06-13 13:20:00,
2013-06-13 07:25:00,50.1,48.4,29.75,South,175,0.0,0.0,94,0.00,,---,0.00,VWS V13.00,2013-06-13 13:25:00,
2013-06-13 07:30:00,50.7,49.3,29.75,South,190,5.0,7.0,95,0.00,,---,0.00,VWS V13.00,2013-06-13 13:30:00,
2013-06-13 07:35:00,51.9,50.5,29.75,South,190,3.0,7.0,95,0.00,,---,0.00,VWS V13.00,2013-06-13 13:35:00,
2013-06-13 07:40:00,52.7,51.0,29.74,South,190,3.0,5.0,94,0.00,,---,0.00,VWS V13.00,2013-06-13 13:40:00,
2013-06-13 07:45:00,52.9,50.9,29.74,South,190,3.0,5.0,93,0.00,,---,0.00,VWS V13.00,2013-06-13 13:45:00,
2013-06-13 07:50:00,53.0,50.7,29.74,South,190,0.0,5.0,92,0.00,,---,0.00,VWS V13.00,2013-06-13 13:50:00,
2013-06-13 07:55:00,53.4,51.4,29.75,South,190,0.0,5.0,93,0.00,,---,0.00,VWS V13.00,2013-06-13 13:55:00,
2013-06-13 08:00:00,54.1,52.1,29.75,South,190,0.0,5.0,93,0.00,,---,0.00,VWS V13.00,2013-06-13 14:00:00,
2013-06-13 08:05:00,54.7,52.4,29.75,South,190,3.0,5.0,92,0.00,,---,0.00,VWS V13.00,2013-06-13 14:05:00,
2013-06-13 08:10:00,55.4,52.8,29.73,SW,215,2.0,6.0,91,0.00,,---,0.00,VWS V13.00,2013-06-13 14:10:00,
2013-06-13 08:15:00,55.9,52.4,29.73,West,272,7.0,10.0,88,0.00,,---,0.00,VWS V13.00,2013-06-13 14:15:00,
2013-06-13 08:20:00,56.1,52.3,29.73,West,272,9.0,11.0,87,0.00,,---,0.00,VWS V13.00,2013-06-13 14:20:00,
2013-06-13 08:25:00,56.3,52.5,29.72,West,271,5.0,11.0,87,0.00,,---,0.00,VWS V13.00,2013-06-13 14:25:00,
2013-06-13 08:30:00,56.2,51.8,29.72,West,270,6.0,13.0,85,0.00,,---,0.00,VWS V13.00,2013-06-13 14:30:00,
2013-06-13 08:35:00,56.0,51.6,29.72,West,273,11.0,15.0,85,0.00,,---,0.00,VWS V13.00,2013-06-13 14:35:00,
2013-06-13 08:40:00,55.7,51.9,29.74,West,259,12.0,16.0,87,0.00,,---,0.00,VWS V13.00,2013-06-13 14:40:00,
2013-06-13 08:45:00,55.4,51.9,29.74,West,263,14.0,18.0,88,0.00,,---,0.00,VWS V13.00,2013-06-13 14:45:00,
2013-06-13 08:50:00,55.0,51.5,29.74,WSW,252,13.0,19.0,88,0.00,,---,0.00,VWS V13.00,2013-06-13 14:50:00,
2013-06-13 08:55:00,54.5,51.3,29.77,West,263,16.0,19.0,89,0.00,,---,0.00,VWS V13.00,2013-06-13 14:55:00,
2013-06-13 09:00:00,54.3,51.4,29.77,WSW,256,10.0,19.0,90,0.00,,---,0.00,VWS V13.00,2013-06-13 15:00:00,
2013-06-13 09:05:00,54.2,51.6,29.77,WSW,246,13.0,19.0,91,0.00,,---,0.00,VWS V13.00,2013-06-13 15:05:00,
2013-06-13 09:10:00,54.1,51.5,29.81,West,259,14.0,19.0,91,0.00,,---,0.00,VWS V13.00,2013-06-13 15:10:00,
2013-06-13 09:15:00,54.1,51.8,29.81,West,264,13.0,19.0,92,0.00,,---,0.00,VWS V13.00,2013-06-13 15:15:00,
2013-06-13 09:20:00,54.1,51.8,29.81,WNW,284,9.0,19.0,92,0.03,,---,0.03,VWS V13.00,2013-06-13 15:20:00,
2013-06-13 09:25:00,54.4,52.7,29.80,WNW,299,12.0,19.0,94,0.04,,---,0.04,VWS V13.00,2013-06-13 15:25:00,
2013-06-13 09:30:00,54.9,53.5,29.80,WNW,300,11.0,19.0,95,0.04,,---,0.04,VWS V13.00,2013-06-13 15:30:00,
2013-06-13 09:35:00,55.6,54.2,29.80,WNW,291,6.0,19.0,95,0.04,,---,0.04,VWS V13.00,2013-06-13 15:35:00,
2013-06-13 09:40:00,56.4,55.3,29.79,WNW,288,10.0,13.0,96,0.04,,---,0.04,VWS V13.00,2013-06-13 15:40:00,
2013-06-13 09:45:00,56.6,55.2,29.79,WNW,300,13.0,15.0,95,0.04,,---,0.04,VWS V13.00,2013-06-13 15:45:00,
2013-06-13 09:50:00,56.9,55.5,29.79,NW,318,14.0,15.0,95,0.04,,---,0.04,VWS V13.00,2013-06-13 15:50:00,
2013-06-13 09:55:00,57.2,55.5,29.75,North,5,5.0,16.0,94,0.04,,---,0.04,VWS V13.00,2013-06-13 15:55:00,
2013-06-13 10:00:00,57.2,54.9,29.75,NNE,13,2.0,16.0,92,0.04,,---,0.04,VWS V13.00,2013-06-13 16:00:00,
2013-06-13 10:05:00,57.3,55.0,29.75,North,11,4.0,16.0,92,0.04,,---,0.04,VWS V13.00,2013-06-13 16:05:00,
2013-06-13 10:10:00,57.9,55.9,29.73,NNE,21,5.0,5.0,93,0.04,,---,0.04,VWS V13.00,2013-06-13 16:10:00,
2013-06-13 10:15:00,58.2,55.6,29.73,NNE,13,0.0,7.0,91,0.04,,---,0.04,VWS V13.00,2013-06-13 16:15:00,
2013-06-13 10:20:00,58.6,56.3,29.73,East,88,0.0,7.0,92,0.04,,---,0.04,VWS V13.00,2013-06-13 16:20:00,
2013-06-13 10:25:00,59.0,55.5,29.71,East,82,0.0,7.0,88,0.04,,---,0.04,VWS V13.00,2013-06-13 16:25:00,
2013-06-13 10:30:00,59.7,55.8,29.71,East,82,0.0,7.0,87,0.04,,---,0.04,VWS V13.00,2013-06-13 16:30:00,
2013-06-13 10:35:00,60.0,55.5,29.71,East,82,0.0,7.0,85,0.04,,---,0.04,VWS V13.00,2013-06-13 16:35:00,
2013-06-13 10:40:00,60.5,56.0,29.72,North,355,0.0,6.0,85,0.00,,---,0.04,VWS V13.00,2013-06-13 16:40:00,
2013-06-13 10:45:00,60.9,56.0,29.72,NW,314,0.0,6.0,84,0.00,,---,0.04,VWS V13.00,2013-06-13 16:45:00,
2013-06-13 10:50:00,61.0,56.1,29.72,West,270,5.0,7.0,84,0.00,,---,0.04,VWS V13.00,2013-06-13 16:50:00,
2013-06-13 10:55:00,61.1,56.6,29.74,West,279,11.0,11.0,85,0.00,,---,0.04,VWS V13.00,2013-06-13 16:55:00,
2013-06-13 11:00:00,60.9,55.7,29.74,NW,313,12.0,13.0,83,0.00,,---,0.04,VWS V13.00,2013-06-13 17:00:00,
2013-06-13 11:05:00,60.2,55.3,29.74,NW,325,13.0,16.0,84,0.00,,---,0.04,VWS V13.00,2013-06-13 17:05:00,
2013-06-13 11:10:00,59.7,55.8,29.75,NNW,333,5.0,11.0,87,0.00,,---,0.04,VWS V13.00,2013-06-13 17:10:00,
2013-06-13 11:15:00,59.0,54.5,29.75,WNW,298,17.0,22.0,85,0.00,,---,0.04,VWS V13.00,2013-06-13 17:15:00,
2013-06-13 11:20:00,57.3,53.5,29.75,NW,311,17.0,23.0,87,0.00,,---,0.04,VWS V13.00,2013-06-13 17:20:00,
2013-06-13 11:25:00,56.3,53.1,29.76,WNW,302,18.0,24.0,89,0.00,,---,0.04,VWS V13.00,2013-06-13 17:25:00,
2013-06-13 11:30:00,55.8,53.2,29.76,WNW,303,21.0,24.0,91,0.00,,---,0.04,VWS V13.00,2013-06-13 17:30:00,
2013-06-13 11:35:00,55.6,53.0,29.76,WNW,299,16.0,24.0,91,0.00,,---,0.04,VWS V13.00,2013-06-13 17:35:00,
2013-06-13 11:40:00,55.0,51.8,29.78,NW,306,14.0,22.0,89,0.00,,---,0.04,VWS V13.00,2013-06-13 17:40:00,
2013-06-13 11:45:00,54.3,51.4,29.78,WNW,292,17.0,23.0,90,0.00,,---,0.04,VWS V13.00,2013-06-13 17:45:00,
2013-06-13 11:50:00,53.9,51.3,29.78,WNW,302,15.0,23.0,91,0.00,,---,0.04,VWS V13.00,2013-06-13 17:50:00,
2013-06-13 11:55:00,53.6,51.0,29.81,WNW,290,14.0,23.0,91,0.00,,---,0.04,VWS V13.00,2013-06-13 17:55:00,
2013-06-13 12:00:00,53.4,51.1,29.81,WNW,291,21.0,23.0,92,0.00,,---,0.04,VWS V13.00,2013-06-13 18:00:00,
2013-06-13 12:05:00,53.2,50.9,29.81,WNW,300,13.0,23.0,92,0.00,,---,0.04,VWS V13.00,2013-06-13 18:05:00,
2013-06-13 12:10:00,53.2,51.2,29.82,WNW,298,14.0,18.0,93,0.00,,---,0.04,VWS V13.00,2013-06-13 18:10:00,
2013-06-13 12:15:00,53.2,51.2,29.82,NW,304,14.0,18.0,93,0.00,,---,0.04,VWS V13.00,2013-06-13 18:15:00,
2013-06-13 12:20:00,53.3,51.6,29.82,NW,310,14.0,19.0,94,0.00,,---,0.04,VWS V13.00,2013-06-13 18:20:00,
2013-06-13 12:25:00,53.1,51.1,29.81,NW,308,15.0,21.0,93,0.00,,---,0.04,VWS V13.00,2013-06-13 18:25:00,
2013-06-13 12:30:00,53.2,50.9,29.81,NW,311,15.0,21.0,92,0.00,,---,0.04,VWS V13.00,2013-06-13 18:30:00,
2013-06-13 12:35:00,53.5,51.2,29.81,WNW,293,12.0,21.0,92,0.00,,---,0.04,VWS V13.00,2013-06-13 18:35:00,
2013-06-13 12:40:00,53.8,51.2,29.80,NW,311,10.0,17.0,91,0.00,,---,0.04,VWS V13.00,2013-06-13 18:40:00,
2013-06-13 12:45:00,54.1,51.5,29.80,NW,305,13.0,18.0,91,0.00,,---,0.04,VWS V13.00,2013-06-13 18:45:00,
2013-06-13 12:50:00,54.3,51.4,29.80,WNW,299,11.0,18.0,90,0.00,,---,0.04,VWS V13.00,2013-06-13 18:50:00,
2013-06-13 12:55:00,54.4,51.5,29.81,NW,310,8.0,18.0,90,0.00,,---,0.04,VWS V13.00,2013-06-13 18:55:00,
2013-06-13 13:00:00,54.6,51.7,29.81,WNW,294,2.0,18.0,90,0.00,,---,0.04,VWS V13.00,2013-06-13 19:00:00,
2013-06-13 13:05:00,54.6,51.4,29.81,WNW,301,3.0,18.0,89,0.00,,---,0.04,VWS V13.00,2013-06-13 19:05:00,
2013-06-13 13:10:00,54.7,51.8,29.81,NW,318,4.0,7.0,90,0.00,,---,0.04,VWS V13.00,2013-06-13 19:10:00,
2013-06-13 13:15:00,54.9,52.0,29.81,NW,317,4.0,9.0,90,0.00,,---,0.04,VWS V13.00,2013-06-13 19:15:00,
2013-06-13 13:20:00,55.1,52.2,29.81,NW,321,6.0,12.0,90,0.00,,---,0.04,VWS V13.00,2013-06-13 19:20:00,
2013-06-13 13:25:00,55.2,52.0,29.81,NW,323,9.0,12.0,89,0.00,,---,0.04,VWS V13.00,2013-06-13 19:25:00,
2013-06-13 13:30:00,55.3,52.1,29.81,NW,314,9.0,13.0,89,0.00,,---,0.04,VWS V13.00,2013-06-13 19:30:00,
2013-06-13 13:35:00,55.7,52.8,29.81,NW,311,4.0,13.0,90,0.00,,---,0.04,VWS V13.00,2013-06-13 19:35:00,
2013-06-13 13:40:00,56.2,52.7,29.80,WNW,294,9.0,12.0,88,0.00,,---,0.04,VWS V13.00,2013-06-13 19:40:00,
2013-06-13 13:45:00,56.4,52.6,29.80,NNW,337,9.0,14.0,87,0.00,,---,0.04,VWS V13.00,2013-06-13 19:45:00,
2013-06-13 13:50:00,55.9,51.5,29.80,NNW,347,7.0,14.0,85,0.00,,---,0.04,VWS V13.00,2013-06-13 19:50:00,
2013-06-13 13:55:00,55.1,51.0,29.82,North,11,7.0,14.0,86,0.00,,---,0.04,VWS V13.00,2013-06-13 19:55:00,
2013-06-13 14:00:00,54.6,50.5,29.82,NNE,13,7.0,14.0,86,0.00,,---,0.04,VWS V13.00,2013-06-13 20:00:00,
2013-06-13 14:05:00,54.2,50.4,29.82,North,5,6.0,14.0,87,0.00,,---,0.04,VWS V13.00,2013-06-13 20:05:00,
2013-06-13 14:10:00,54.0,50.2,29.83,North,5,5.0,12.0,87,0.00,,---,0.04,VWS V13.00,2013-06-13 20:10:00,
2013-06-13 14:15:00,54.0,50.8,29.83,NNE,15,6.0,12.0,89,0.00,,---,0.04,VWS V13.00,2013-06-13 20:15:00,
2013-06-13 14:20:00,54.2,51.0,29.83,North,9,4.0,12.0,89,0.00,,---,0.04,VWS V13.00,2013-06-13 20:20:00,
2013-06-13 14:25:00,54.4,51.2,29.82,North,360,0.0,12.0,89,0.00,,---,0.04,VWS V13.00,2013-06-13 20:25:00,
2013-06-13 14:30:00,54.7,51.5,29.82,NNW,336,5.0,12.0,89,0.00,,---,0.04,VWS V13.00,2013-06-13 20:30:00,
2013-06-13 14:35:00,54.9,51.4,29.82,North,360,10.0,14.0,88,0.00,,---,0.04,VWS V13.00,2013-06-13 20:35:00,
2013-06-13 14:40:00,55.0,51.5,29.81,North,5,6.0,10.0,88,0.00,,---,0.04,VWS V13.00,2013-06-13 20:40:00,
2013-06-13 14:45:00,55.1,51.3,29.81,North,355,7.0,11.0,87,0.00,,---,0.04,VWS V13.00,2013-06-13 20:45:00,
2013-06-13 14:50:00,55.1,51.3,29.81,North,360,9.0,16.0,87,0.00,,---,0.04,VWS V13.00,2013-06-13 20:50:00,
2013-06-13 14:55:00,55.2,51.4,29.82,North,11,9.0,16.0,87,0.00,,---,0.04,VWS V13.00,2013-06-13 20:55:00,
2013-06-13 15:00:00,55.2,51.4,29.82,NNW,346,5.0,16.0,87,0.00,,---,0.04,VWS V13.00,2013-06-13 21:00:00,
2013-06-13 15:05:00,55.2,51.4,29.82,NNW,338,9.0,16.0,87,0.00,,---,0.04,VWS V13.00,2013-06-13 21:05:00,
2013-06-13 15:10:00,55.0,50.9,29.82,North,5,9.0,19.0,86,0.00,,---,0.04,VWS V13.00,2013-06-13 21:10:00,
2013-06-13 15:15:00,54.8,51.0,29.82,North,10,12.0,19.0,87,0.00,,---,0.04,VWS V13.00,2013-06-13 21:15:00,
2013-06-13 15:20:00,54.6,50.8,29.82,North,350,17.0,19.0,87,0.00,,---,0.04,VWS V13.00,2013-06-13 21:20:00,
2013-06-13 15:25:00,54.3,50.5,29.82,North,355,6.0,19.0,87,0.00,,---,0.04,VWS V13.00,2013-06-13 21:25:00,
2013-06-13 15:30:00,54.1,50.3,29.82,NNW,330,8.0,19.0,87,0.00,,---,0.04,VWS V13.00,2013-06-13 21:30:00,
2013-06-13 15:35:00,54.0,50.2,29.82,North,355,10.0,19.0,87,0.00,,---,0.04,VWS V13.00,2013-06-13 21:35:00,
2013-06-13 15:40:00,53.8,50.0,29.81,North,355,6.0,15.0,87,0.00,,---,0.04,VWS V13.00,2013-06-13 21:40:00,
2013-06-13 15:45:00,53.6,49.8,29.81,NNW,338,16.0,16.0,87,0.00,,---,0.04,VWS V13.00,2013-06-13 21:45:00,
2013-06-13 15:50:00,53.5,49.7,29.81,NNW,344,10.0,17.0,87,0.00,,---,0.04,VWS V13.00,2013-06-13 21:50:00,
2013-06-13 15:55:00,53.5,49.7,29.81,NNW,327,13.0,17.0,87,0.00,,---,0.04,VWS V13.00,2013-06-13 21:55:00,
2013-06-13 16:00:00,53.4,49.9,29.81,NNW,333,9.0,17.0,88,0.00,,---,0.04,VWS V13.00,2013-06-13 22:00:00,
2013-06-13 16:05:00,53.3,49.5,29.81,NW,317,5.0,18.0,87,0.00,,---,0.04,VWS V13.00,2013-06-13 22:05:00,
2013-06-13 16:10:00,53.2,49.7,29.83,NNW,333,11.0,17.0,88,0.00,,---,0.04,VWS V13.00,2013-06-13 22:10:00,
2013-06-13 16:15:00,53.2,49.7,29.83,NNW,331,14.0,17.0,88,0.00,,---,0.04,VWS V13.00,2013-06-13 22:15:00,
2013-06-13 16:20:00,53.0,49.8,29.83,North,350,6.0,17.0,89,0.00,,---,0.04,VWS V13.00,2013-06-13 22:20:00,
2013-06-13 16:25:00,52.9,49.8,29.81,NNW,331,10.0,17.0,89,0.00,,---,0.04,VWS V13.00,2013-06-13 22:25:00,
2013-06-13 16:30:00,52.8,49.3,29.81,NW,319,13.0,17.0,88,0.00,,---,0.04,VWS V13.00,2013-06-13 22:30:00,
2013-06-13 16:35:00,52.7,49.2,29.81,WNW,302,9.0,17.0,88,0.00,,---,0.04,VWS V13.00,2013-06-13 22:35:00,
2013-06-13 16:40:00,52.6,49.5,29.83,NW,313,14.0,16.0,89,0.00,,---,0.04,VWS V13.00,2013-06-13 22:40:00,
2013-06-13 16:45:00,52.4,49.3,29.83,WNW,299,10.0,17.0,89,0.00,,---,0.04,VWS V13.00,2013-06-13 22:45:00,
2013-06-13 16:50:00,52.3,49.8,29.83,WNW,302,7.0,17.0,91,0.01,,---,0.05,VWS V13.00,2013-06-13 22:50:00,
2013-06-13 16:55:00,52.2,49.7,29.85,NW,324,14.0,17.0,91,0.01,,---,0.05,VWS V13.00,2013-06-13 22:55:00,
2013-06-13 17:00:00,52.1,49.6,29.85,NW,326,21.0,21.0,91,0.02,,---,0.06,VWS V13.00,2013-06-13 23:00:00,
2013-06-13 17:05:00,52.1,49.6,29.85,NW,310,11.0,21.0,91,0.02,,---,0.06,VWS V13.00,2013-06-13 23:05:00,
2013-06-13 17:10:00,52.0,49.5,29.84,NW,307,12.0,17.0,91,0.02,,---,0.06,VWS V13.00,2013-06-13 23:10:00,
2013-06-13 17:15:00,52.0,49.8,29.84,WNW,302,13.0,17.0,92,0.02,,---,0.06,VWS V13.00,2013-06-13 23:15:00,
2013-06-13 17:20:00,51.8,49.3,29.84,NW,304,11.0,19.0,91,0.02,,---,0.06,VWS V13.00,2013-06-13 23:20:00,
2013-06-13 17:25:00,51.7,49.5,29.85,WNW,303,16.0,19.0,92,0.02,,---,0.06,VWS V13.00,2013-06-13 23:25:00,
2013-06-13 17:30:00,51.5,49.3,29.85,WNW,298,11.0,20.0,92,0.02,,---,0.06,VWS V13.00,2013-06-13 23:30:00,
2013-06-13 17:35:00,51.4,48.9,29.85,WNW,296,19.0,21.0,91,0.02,,---,0.06,VWS V13.00,2013-06-13 23:35:00,
2013-06-13 17:40:00,51.2,49.0,29.86,WNW,301,14.0,18.0,92,0.02,,---,0.06,VWS V13.00,2013-06-13 23:40:00,
2013-06-13 17:45:00,51.2,49.2,29.86,WNW,286,19.0,20.0,93,0.02,,---,0.06,VWS V13.00,2013-06-13 23:45:00,
2013-06-13 17:50:00,51.0,48.8,29.86,WNW,296,20.0,26.0,92,0.02,,---,0.06,VWS V13.00,2013-06-13 23:50:00,
2013-06-13 17:55:00,50.8,48.6,29.86,WNW,302,20.0,26.0,92,0.02,,---,0.06,VWS V13.00,2013-06-13 23:55:00,
2013-06-13 18:00:00,50.6,48.4,29.86,NW,304,16.0,26.0,92,0.02,,---,0.06,VWS V13.00,2013-06-14 00:00:00,
2013-06-13 18:05:00,50.5,48.3,29.86,NW,314,19.0,26.0,92,0.02,,---,0.06,VWS V13.00,2013-06-14 00:05:00,
2013-06-13 18:10:00,50.2,48.0,29.87,WNW,296,11.0,16.0,92,0.00,,---,0.06,VWS V13.00,2013-06-14 00:10:00,
2013-06-13 18:15:00,50.1,48.2,29.87,NW,307,13.0,17.0,93,0.00,,---,0.06,VWS V13.00,2013-06-14 00:15:00,
2013-06-13 18:20:00,50.0,48.1,29.87,WNW,292,10.0,17.0,93,0.00,,---,0.06,VWS V13.00,2013-06-14 00:20:00,
2013-06-13 18:25:00,49.9,48.0,29.90,West,281,15.0,17.0,93,0.01,,---,0.07,VWS V13.00,2013-06-14 00:25:00,
2013-06-13 18:30:00,49.9,48.2,29.90,West,259,16.0,17.0,94,0.02,,---,0.08,VWS V13.00,2013-06-14 00:30:00,
2013-06-13 18:35:00,49.9,48.2,29.90,West,269,13.0,19.0,94,0.02,,---,0.09,VWS V13.00,2013-06-14 00:35:00,
2013-06-13 18:40:00,49.9,48.5,29.93,West,281,14.0,19.0,95,0.04,,---,0.11,VWS V13.00,2013-06-14 00:40:00,
2013-06-13 18:45:00,49.7,48.0,29.93,West,281,17.0,19.0,94,0.08,,---,0.15,VWS V13.00,2013-06-14 00:45:00,
2013-06-13 18:50:00,49.5,47.8,29.93,NW,318,14.0,19.0,94,0.10,,---,0.16,VWS V13.00,2013-06-14 00:50:00,
2013-06-13 18:55:00,49.4,48.0,29.88,NW,323,7.0,19.0,95,0.10,,---,0.16,VWS V13.00,2013-06-14 00:55:00,
2013-06-13 19:00:00,49.3,47.9,29.88,NW,325,0.0,19.0,95,0.11,,---,0.17,VWS V13.00,2013-06-14 01:00:00,
2013-06-13 19:05:00,49.2,47.8,29.88,NW,326,0.0,19.0,95,0.11,,---,0.17,VWS V13.00,2013-06-14 01:05:00,
2013-06-13 19:10:00,49.2,47.8,29.88,West,273,6.0,6.0,95,0.11,,---,0.17,VWS V13.00,2013-06-14 01:10:00,
2013-06-13 19:15:00,49.2,47.8,29.88,WSW,241,5.0,10.0,95,0.11,,---,0.17,VWS V13.00,2013-06-14 01:15:00,
2013-06-13 19:20:00,49.3,47.9,29.88,WSW,242,0.0,10.0,95,0.12,,---,0.18,VWS V13.00,2013-06-14 01:20:00,
2013-06-13 19:25:00,49.2,47.8,29.84,WSW,242,0.0,10.0,95,0.12,,---,0.18,VWS V13.00,2013-06-14 01:25:00,
2013-06-13 19:30:00,49.2,47.8,29.84,WSW,242,0.0,10.0,95,0.12,,---,0.18,VWS V13.00,2013-06-14 01:30:00,
2013-06-13 19:35:00,49.2,47.8,29.84,WSW,242,0.0,10.0,95,0.13,,---,0.19,VWS V13.00,2013-06-14 01:35:00,
2013-06-13 19:40:00,49.4,48.0,29.85,WSW,248,5.0,5.0,95,0.09,,---,0.19,VWS V13.00,2013-06-14 01:40:00,
2013-06-13 19:45:00,49.5,48.4,29.85,WSW,254,0.0,5.0,96,0.09,,---,0.19,VWS V13.00,2013-06-14 01:45:00,
2013-06-13 19:50:00,49.7,48.6,29.85,WSW,253,0.0,5.0,96,0.09,,---,0.19,VWS V13.00,2013-06-14 01:50:00,
2013-06-13 19:55:00,49.8,48.7,29.82,WSW,254,0.0,6.0,96,0.09,,---,0.19,VWS V13.00,2013-06-14 01:55:00,
2013-06-13 20:00:00,49.8,48.7,29.82,West,259,7.0,9.0,96,0.09,,---,0.19,VWS V13.00,2013-06-14 02:00:00,
2013-06-13 20:05:00,49.9,48.8,29.82,West,281,7.0,11.0,96,0.09,,---,0.19,VWS V13.00,2013-06-14 02:05:00,
2013-06-13 20:10:00,49.8,48.7,29.83,WNW,290,11.0,12.0,96,0.02,,---,0.19,VWS V13.00,2013-06-14 02:10:00,
2013-06-13 20:15:00,49.8,48.7,29.83,WNW,284,12.0,14.0,96,0.02,,---,0.19,VWS V13.00,2013-06-14 02:15:00,
2013-06-13 20:20:00,49.8,48.7,29.83,WNW,295,12.0,15.0,96,0.02,,---,0.19,VWS V13.00,2013-06-14 02:20:00,
2013-06-13 20:25:00,49.8,48.4,29.83,WNW,294,12.0,15.0,95,0.02,,---,0.19,VWS V13.00,2013-06-14 02:25:00,
2013-06-13 20:30:00,49.7,48.3,29.83,WNW,282,7.0,15.0,95,0.02,,---,0.19,VWS V13.00,2013-06-14 02:30:00,
2013-06-13 20:35:00,49.7,48.3,29.83,West,277,13.0,15.0,95,0.02,,---,0.19,VWS V13.00,2013-06-14 02:35:00,
2013-06-13 20:40:00,49.8,48.4,29.83,West,277,10.0,14.0,95,0.00,,---,0.19,VWS V13.00,2013-06-14 02:40:00,
2013-06-13 20:45:00,49.8,48.4,29.83,West,281,7.0,14.0,95,0.00,,---,0.19,VWS V13.00,2013-06-14 02:45:00,
2013-06-13 20:50:00,49.9,48.5,29.83,West,280,9.0,14.0,95,0.00,,---,0.19,VWS V13.00,2013-06-14 02:50:00,
2013-06-13 20:55:00,49.9,48.5,29.84,West,273,11.0,14.0,95,0.00,,---,0.19,VWS V13.00,2013-06-14 02:55:00,
2013-06-13 21:00:00,49.9,48.5,29.84,WNW,284,12.0,14.0,95,0.00,,---,0.19,VWS V13.00,2013-06-14 03:00:00,
2013-06-13 21:05:00,50.0,48.6,29.84,West,277,9.0,14.0,95,0.00,,---,0.19,VWS V13.00,2013-06-14 03:05:00,
2013-06-13 21:10:00,49.9,48.5,29.84,West,263,14.0,14.0,95,0.00,,---,0.19,VWS V13.00,2013-06-14 03:10:00,
2013-06-13 21:15:00,49.9,48.5,29.84,West,271,11.0,14.0,95,0.00,,---,0.19,VWS V13.00,2013-06-14 03:15:00,
2013-06-13 21:20:00,49.8,48.4,29.84,West,273,7.0,14.0,95,0.00,,---,0.19,VWS V13.00,2013-06-14 03:20:00,
2013-06-13 21:25:00,49.8,48.4,29.81,West,272,10.0,14.0,95,0.00,,---,0.19,VWS V13.00,2013-06-14 03:25:00,
2013-06-13 21:30:00,49.8,48.4,29.81,West,273,7.0,14.0,95,0.00,,---,0.19,VWS V13.00,2013-06-14 03:30:00,
2013-06-13 21:35:00,49.8,48.4,29.81,West,271,9.0,14.0,95,0.00,,---,0.19,VWS V13.00,2013-06-14 03:35:00,
2013-06-13 21:40:00,49.8,48.4,29.82,West,268,7.0,10.0,95,0.00,,---,0.19,VWS V13.00,2013-06-14 03:40:00,
2013-06-13 21:45:00,49.8,48.4,29.82,West,265,9.0,11.0,95,0.00,,---,0.19,VWS V13.00,2013-06-14 03:45:00,
2013-06-13 21:50:00,49.9,48.5,29.82,West,275,12.0,13.0,95,0.00,,---,0.19,VWS V13.00,2013-06-14 03:50:00,
2013-06-13 21:55:00,49.9,48.5,29.81,West,275,8.0,14.0,95,0.00,,---,0.19,VWS V13.00,2013-06-14 03:55:00,
2013-06-13 22:00:00,49.9,48.8,29.81,WSW,250,9.0,14.0,96,0.00,,---,0.19,VWS V13.00,2013-06-14 04:00:00,
2013-06-13 22:01:00,49.9,48.8,29.81,WSW,246,11.0,14.0,96,0.00,,---,0.19,VWS V13.00,2013-06-14 04:01:00,
2013-06-13 22:06:00,49.9,48.5,29.81,WSW,245,7.0,14.0,95,0.00,,---,0.19,VWS V13.00,2013-06-14 04:06:00,
2013-06-13 22:11:00,49.9,48.5,29.83,WSW,246,4.0,9.0,95,0.00,,---,0.19,VWS V13.00,2013-06-14 04:11:00,
2013-06-13 22:16:00,49.9,48.5,29.83,WSW,245,4.0,9.0,95,0.00,,---,0.19,VWS V13.00,2013-06-14 04:16:00,
2013-06-13 22:21:00,49.9,48.5,29.83,WSW,245,5.0,10.0,95,0.00,,---,0.19,VWS V13.00,2013-06-14 04:21:00,
2013-06-13 22:26:00,49.9,48.5,29.84,WSW,242,0.0,10.0,95,0.00,,---,0.19,VWS V13.00,2013-06-14 04:26:00,
2013-06-13 22:31:00,49.9,48.5,29.84,WSW,242,10.0,12.0,95,0.00,,---,0.19,VWS V13.00,2013-06-14 04:31:00,
2013-06-13 22:36:00,49.9,48.5,29.84,WSW,238,12.0,14.0,95,0.00,,---,0.19,VWS V13.00,2013-06-14 04:36:00,
2013-06-13 22:41:00,49.9,48.5,29.85,WSW,243,12.0,15.0,95,0.00,,---,0.19,VWS V13.00,2013-06-14 04:41:00,
2013-06-13 22:46:00,49.9,48.2,29.85,WSW,245,11.0,15.0,94,0.00,,---,0.19,VWS V13.00,2013-06-14 04:46:00,
2013-06-13 22:51:00,49.9,48.2,29.85,West,259,11.0,15.0,94,0.00,,---,0.19,VWS V13.00,2013-06-14 04:51:00,
2013-06-13 22:56:00,49.9,48.2,29.89,West,261,12.0,15.0,94,0.00,,---,0.19,VWS V13.00,2013-06-14 04:56:00,
2013-06-13 23:01:00,49.9,48.0,29.89,WSW,245,10.0,15.0,93,0.00,,---,0.19,VWS V13.00,2013-06-14 05:01:00,
2013-06-13 23:06:00,49.8,47.9,29.89,WSW,238,6.0,15.0,93,0.00,,---,0.19,VWS V13.00,2013-06-14 05:06:00,
2013-06-13 23:11:00,49.7,47.5,29.90,SW,234,4.0,8.0,92,0.00,,---,0.19,VWS V13.00,2013-06-14 05:11:00,
2013-06-13 23:16:00,49.7,47.5,29.90,SW,234,6.0,9.0,92,0.00,,---,0.19,VWS V13.00,2013-06-14 05:16:00,
2013-06-13 23:21:00,49.7,47.5,29.90,SW,234,4.0,9.0,92,0.00,,---,0.19,VWS V13.00,2013-06-14 05:21:00,
2013-06-13 23:26:00,49.6,47.4,29.88,SW,234,0.0,9.0,92,0.01,,---,0.20,VWS V13.00,2013-06-14 05:26:00,
2013-06-13 23:31:00,49.4,47.2,29.88,SW,234,0.0,9.0,92,0.01,,---,0.21,VWS V13.00,2013-06-14 05:31:00,
2013-06-13 23:36:00,49.4,47.2,29.88,SW,234,0.0,9.0,92,0.02,,---,0.21,VWS V13.00,2013-06-14 05:36:00,
2013-06-13 23:41:00,49.3,47.1,29.88,SW,234,0.0,0.0,92,0.02,,---,0.00,VWS V13.00,2013-06-14 05:41:00,
2013-06-13 23:46:00,49.1,46.9,29.88,SW,234,0.0,0.0,92,0.02,,---,0.00,VWS V13.00,2013-06-14 05:46:00,
2013-06-13 23:51:00,48.9,47.0,29.88,SW,222,7.0,7.0,93,0.02,,---,0.00,VWS V13.00,2013-06-14 05:51:00,
2013-06-13 23:56:00,48.7,46.8,29.90,South,178,5.0,9.0,93,0.02,,---,0.00,VWS V13.00,2013-06-14 05:56:00,